Time;durP1;ratioP1;P1;durP2;ratioP2;P2;SDS_P1;SDS_P2;PMS_P1;PMS_P2;Temp;Humidity;BMP_temperature;BMP_pressure;BME280_temperature;BME280_humidity;BME280_pressure;Samples;Min_cycle;Max_cycle;Signal;HPM_P1;HPM_P2
2022/07/20 00:01:36;;;;;;;0.20;0.20;;;19.70;1.00;;;;;;5011402;28;20184;-74
2022/07/20 00:04:03;;;;;;;0.30;0.30;;;19.60;1.00;;;;;;5011212;28;20200;-75
2022/07/20 00:06:28;;;;;;;0.30;0.30;;;19.60;1.00;;;;;;5011277;28;20705;-75
2022/07/20 00:11:38;;;;;;;0.30;0.30;;;19.60;1.00;;;;;;5011713;28;20226;-75
2022/07/20 00:14:04;;;;;;;0.30;0.30;;;19.60;1.00;;;;;;5011202;28;20209;-74
2022/07/20 00:16:31;;;;;;;0.20;0.20;;;19.40;1.00;;;;;;5011202;28;20176;-74
2022/07/20 00:18:56;;;;;;;0.30;0.30;;;19.30;1.00;;;;;;5010631;28;20315;-74
2022/07/20 00:21:22;;;;;;;0.30;0.30;;;19.30;1.00;;;;;;5011351;28;20275;-75
2022/07/20 00:23:48;;;;;;;0.30;0.30;;;19.30;1.00;;;;;;5012626;28;20283;-75
2022/07/20 00:26:14;;;;;;;0.20;0.20;;;19.40;1.00;;;;;;5014799;28;20197;-75
2022/07/20 00:28:40;;;;;;;0.30;0.30;;;19.30;1.00;;;;;;5014564;28;20180;-75
2022/07/20 00:31:05;;;;;;;0.30;0.30;;;19.40;1.00;;;;;;5014030;28;20578;-75
2022/07/20 00:33:31;;;;;;;0.30;0.30;;;19.40;1.00;;;;;;5014575;28;20200;-75
2022/07/20 00:35:57;;;;;;;0.30;0.30;;;19.30;1.00;;;;;;5014475;28;20273;-74
2022/07/20 00:38:23;;;;;;;0.20;0.20;;;19.20;1.00;;;;;;5014540;28;20181;-75
2022/07/20 00:40:49;;;;;;;0.30;0.30;;;19.10;34.10;;;;;;5014003;28;20665;-74
2022/07/20 00:43:15;;;;;;;0.20;0.20;;;19.10;48.40;;;;;;5014298;28;20287;-74
2022/07/20 00:45:40;;;;;;;0.20;0.20;;;19.00;99.90;;;;;;5014188;28;20267;-74
2022/07/20 00:48:06;;;;;;;0.30;0.30;;;19.00;99.90;;;;;;5014401;28;20169;-74
2022/07/20 00:50:31;;;;;;;0.30;0.30;;;19.00;99.90;;;;;;5013835;28;20658;-74
2022/07/20 00:52:58;;;;;;;0.27;0.27;;;18.90;99.90;;;;;;5014208;28;20613;-75
2022/07/20 00:55:24;;;;;;;0.20;0.20;;;18.80;99.90;;;;;;5014032;28;20716;-75
2022/07/20 00:57:49;;;;;;;0.30;0.30;;;18.80;99.90;;;;;;5014099;28;20169;-74
2022/07/20 01:00:15;;;;;;;0.30;0.30;;;18.70;99.90;;;;;;5013374;28;20180;-75
2022/07/20 01:02:42;;;;;;;0.30;0.30;;;18.70;99.90;;;;;;5013784;28;20682;-74
2022/07/20 01:05:14;;;;;;;0.30;0.30;;;18.70;99.90;;;;;;5012747;28;20204;-75
2022/07/20 01:07:47;;;;;;;0.30;0.30;;;18.60;99.90;;;;;;5013921;28;20519;-75
2022/07/20 01:10:14;;;;;;;0.30;0.30;;;18.60;99.90;;;;;;5013411;28;20184;-75
2022/07/20 01:12:46;;;;;;;0.30;0.30;;;18.60;99.90;;;;;;5013679;28;20189;-76
2022/07/20 01:15:11;;;;;;;0.30;0.30;;;18.60;99.90;;;;;;5013906;28;20295;-75
2022/07/20 01:17:37;;;;;;;0.30;0.30;;;18.60;99.90;;;;;;5013871;28;20867;-75
2022/07/20 01:20:03;;;;;;;0.30;0.30;;;18.50;99.90;;;;;;5013240;28;20196;-76
2022/07/20 01:22:29;;;;;;;0.37;0.37;;;18.40;1.00;;;;;;5013510;28;20192;-76
2022/07/20 01:24:54;;;;;;;0.40;0.40;;;18.50;1.00;;;;;;5013545;28;20181;-76
2022/07/20 01:27:20;;;;;;;0.40;0.40;;;18.40;1.00;;;;;;5013551;28;20184;-75
2022/07/20 01:29:45;;;;;;;0.23;0.23;;;18.40;1.00;;;;;;5012983;28;20664;-76
2022/07/20 01:32:11;;;;;;;0.20;0.20;;;18.30;1.00;;;;;;5013527;28;20192;-75
2022/07/20 01:34:36;;;;;;;0.30;0.30;;;18.40;1.00;;;;;;5013141;28;20218;-75
2022/07/20 01:37:02;;;;;;;0.30;0.30;;;18.30;1.00;;;;;;5013248;28;20183;-75
2022/07/20 01:39:27;;;;;;;0.30;0.30;;;18.40;1.00;;;;;;5013023;28;20188;-74
2022/07/20 01:41:53;;;;;;;0.30;0.30;;;18.30;99.90;;;;;;5013392;28;20204;-75
2022/07/20 01:44:22;;;;;;;0.40;0.40;;;18.20;99.90;;;;;;5015937;28;20177;-74
2022/07/20 01:46:50;;;;;;;0.30;0.30;;;18.10;1.00;;;;;;5022701;28;20260;-75
2022/07/20 01:49:17;;;;;;;0.30;0.30;;;18.10;1.00;;;;;;5020726;28;20199;-74
2022/07/20 01:51:43;;;;;;;0.50;0.50;;;18.10;1.00;;;;;;5014134;28;20180;-75
2022/07/20 01:54:09;;;;;;;0.30;0.30;;;18.10;1.00;;;;;;5012971;28;20553;-74
2022/07/20 01:56:35;;;;;;;0.30;0.30;;;18.00;1.00;;;;;;5012775;28;20254;-74
2022/07/20 01:59:00;;;;;;;0.40;0.40;;;18.00;1.00;;;;;;5012625;28;20176;-75
2022/07/20 02:01:26;;;;;;;0.40;0.40;;;18.00;1.00;;;;;;5012958;28;20180;-74
2022/07/20 02:03:51;;;;;;;0.30;0.30;;;18.00;99.90;;;;;;5012924;28;20557;-74
2022/07/20 02:06:17;;;;;;;0.27;0.27;;;18.00;99.90;;;;;;5012890;28;20187;-74
2022/07/20 02:08:42;;;;;;;0.20;0.20;;;17.90;99.90;;;;;;5012607;28;20681;-75
2022/07/20 02:11:08;;;;;;;0.30;0.30;;;17.90;99.90;;;;;;5012158;28;20574;-75
2022/07/20 02:13:35;;;;;;;0.30;0.30;;;17.80;1.00;;;;;;5012800;28;20196;-75
2022/07/20 02:16:14;;;;;;;0.30;0.30;;;17.80;5.80;;;;;;5012689;28;20264;-75
2022/07/20 02:18:40;;;;;;;0.30;0.30;;;17.70;99.90;;;;;;5012694;28;20183;-75
2022/07/20 02:21:07;;;;;;;0.30;0.30;;;17.70;99.90;;;;;;5012133;28;20215;-75
2022/07/20 02:23:32;;;;;;;0.30;0.30;;;17.70;99.90;;;;;;5012368;28;20200;-75
2022/07/20 02:25:58;;;;;;;0.37;0.37;;;17.70;99.90;;;;;;5012603;28;20544;-75
2022/07/20 02:28:23;;;;;;;0.33;0.33;;;17.70;99.90;;;;;;5012652;28;20176;-75
2022/07/20 02:30:49;;;;;;;0.33;0.33;;;17.60;99.90;;;;;;5011946;28;20165;-75
2022/07/20 02:33:14;;;;;;;0.30;0.30;;;17.60;99.90;;;;;;5012360;28;20200;-75
2022/07/20 02:35:40;;;;;;;0.30;0.30;;;17.60;99.90;;;;;;5012257;28;20262;-75
2022/07/20 02:38:05;;;;;;;0.20;0.20;;;17.60;99.90;;;;;;5012175;28;20654;-75
2022/07/20 02:40:31;;;;;;;0.20;0.20;;;17.60;1.00;;;;;;5011978;28;20209;-76
2022/07/20 02:42:56;;;;;;;0.20;0.20;;;17.60;1.00;;;;;;5012345;28;20188;-75
2022/07/20 02:45:22;;;;;;;0.40;0.40;;;17.60;1.00;;;;;;5012291;28;20662;-75
2022/07/20 02:47:48;;;;;;;0.33;0.33;;;17.60;1.00;;;;;;5011519;28;20227;-75
2022/07/20 02:50:14;;;;;;;0.37;0.37;;;17.50;1.00;;;;;;5011752;28;20700;-75
2022/07/20 02:52:41;;;;;;;0.30;0.30;;;17.50;1.00;;;;;;5011931;28;20199;-74
2022/07/20 02:55:08;;;;;;;0.30;0.30;;;17.50;99.90;;;;;;5012171;28;20212;-76
2022/07/20 02:57:33;;;;;;;0.40;0.40;;;17.50;99.90;;;;;;5012193;28;20247;-75
2022/07/20 02:59:59;;;;;;;0.40;0.40;;;17.50;99.90;;;;;;5011538;28;20670;-75
2022/07/20 03:02:25;;;;;;;0.20;0.20;;;17.50;99.90;;;;;;5011958;28;20206;-74
2022/07/20 03:04:50;;;;;;;0.30;0.30;;;17.50;1.00;;;;;;5011948;28;20180;-75
2022/07/20 03:07:16;;;;;;;0.37;0.37;;;17.40;1.00;;;;;;5011816;28;20572;-75
2022/07/20 03:09:42;;;;;;;0.43;0.43;;;17.40;1.00;;;;;;5011344;28;20618;-76
2022/07/20 03:12:08;;;;;;;0.30;0.30;;;17.40;1.00;;;;;;5011901;28;20737;-75
2022/07/20 03:14:34;;;;;;;0.40;0.40;;;17.30;1.00;;;;;;5011811;28;20212;-76
2022/07/20 03:17:00;;;;;;;0.30;0.30;;;17.20;1.00;;;;;;5011887;28;20519;-74
2022/07/20 03:19:25;;;;;;;0.30;0.30;;;17.20;1.00;;;;;;5011447;28;20267;-76
2022/07/20 03:21:51;;;;;;;0.30;0.30;;;17.20;1.00;;;;;;5011746;28;20177;-75
2022/07/20 03:24:16;;;;;;;0.30;0.30;;;17.10;99.90;;;;;;5011947;28;20181;-76
2022/07/20 03:26:42;;;;;;;0.40;0.40;;;17.00;99.90;;;;;;5011819;28;20629;-75
2022/07/20 03:29:07;;;;;;;0.20;0.20;;;17.00;61.00;;;;;;5011221;28;20169;-75
2022/07/20 03:31:33;;;;;;;0.40;0.40;;;16.90;1.00;;;;;;5011741;28;20382;-76
2022/07/20 03:33:58;;;;;;;0.30;0.30;;;17.00;41.10;;;;;;5011529;28;20227;-75
2022/07/20 03:36:24;;;;;;;0.47;0.47;;;17.00;99.90;;;;;;5011501;28;20185;-75
2022/07/20 03:38:50;;;;;;;0.30;0.30;;;17.00;43.90;;;;;;5011431;28;20187;-74
2022/07/20 03:41:15;;;;;;;0.37;0.37;;;16.90;1.00;;;;;;5011366;28;20169;-75
2022/07/20 03:43:41;;;;;;;0.30;0.30;;;16.90;45.20;;;;;;5011660;28;20192;-75
2022/07/20 03:46:06;;;;;;;0.30;0.30;;;16.90;99.90;;;;;;5011530;28;20551;-75
2022/07/20 03:48:32;;;;;;;0.40;0.40;;;16.80;1.00;;;;;;5011546;28;20173;-76
2022/07/20 03:50:57;;;;;;;0.37;0.37;;;16.80;99.90;;;;;;5010688;28;20179;-75
2022/07/20 03:53:23;;;;;;;0.20;0.20;;;16.70;99.90;;;;;;5011670;28;20238;-75
2022/07/20 03:55:49;;;;;;;0.40;0.40;;;16.70;1.00;;;;;;5011567;28;20251;-76
2022/07/20 03:58:14;;;;;;;0.40;0.40;;;16.70;1.00;;;;;;5012044;28;20169;-76
2022/07/20 04:00:40;;;;;;;0.20;0.20;;;16.60;99.90;;;;;;5014711;28;20627;-76
2022/07/20 04:03:05;;;;;;;0.30;0.30;;;16.60;99.90;;;;;;5015078;28;20712;-75
2022/07/20 04:05:31;;;;;;;0.40;0.40;;;16.70;1.00;;;;;;5014972;28;20552;-75
2022/07/20 04:07:56;;;;;;;0.40;0.40;;;16.70;99.90;;;;;;5015041;28;20183;-75
2022/07/20 04:10:22;;;;;;;0.37;0.37;;;16.70;60.00;;;;;;5014708;28;20181;-75
2022/07/20 04:12:47;;;;;;;0.40;0.40;;;16.70;95.60;;;;;;5015032;28;20217;-76
2022/07/20 04:15:13;;;;;;;0.30;0.30;;;16.80;1.00;;;;;;5014783;28;20693;-75
2022/07/20 04:17:41;;;;;;;0.30;0.30;;;16.80;1.00;;;;;;5014951;28;20670;-75
2022/07/20 04:20:08;;;;;;;0.30;0.30;;;16.80;1.00;;;;;;5014278;28;20172;-75
2022/07/20 04:22:33;;;;;;;0.30;0.30;;;16.90;1.00;;;;;;5014757;28;20259;-75
2022/07/20 04:24:59;;;;;;;0.40;0.40;;;17.00;1.00;;;;;;5014735;28;20543;-75
2022/07/20 04:27:24;;;;;;;0.30;0.30;;;17.10;1.00;;;;;;5014539;28;20179;-75
2022/07/20 04:29:50;;;;;;;0.20;0.20;;;17.20;1.00;;;;;;5014098;28;20180;-76
2022/07/20 04:32:16;;;;;;;0.40;0.40;;;17.30;1.00;;;;;;5014464;28;20662;-75
2022/07/20 04:34:42;;;;;;;0.30;0.30;;;17.30;99.90;;;;;;5014377;28;20214;-75
2022/07/20 04:37:07;;;;;;;0.40;0.40;;;17.40;1.00;;;;;;5014426;28;20181;-76
2022/07/20 04:39:33;;;;;;;0.40;0.40;;;17.50;1.00;;;;;;5014213;28;20208;-76
2022/07/20 04:41:59;;;;;;;0.40;0.40;;;17.50;99.90;;;;;;5014499;28;20685;-73
2022/07/20 04:44:24;;;;;;;0.40;0.40;;;17.60;99.90;;;;;;5013790;28;20181;-74
2022/07/20 04:46:50;;;;;;;0.40;0.40;;;17.60;1.00;;;;;;5014070;28;20176;-74
2022/07/20 04:49:15;;;;;;;0.30;0.30;;;17.70;1.00;;;;;;5013769;28;20184;-73
2022/07/20 04:51:42;;;;;;;0.30;0.30;;;17.80;1.00;;;;;;5014430;28;20175;-73
2022/07/20 04:54:07;;;;;;;0.30;0.30;;;17.90;1.00;;;;;;5014319;28;20208;-74
2022/07/20 04:56:33;;;;;;;0.30;0.30;;;18.00;1.00;;;;;;5014073;28;20653;-73
2022/07/20 04:58:59;;;;;;;0.27;0.27;;;18.10;99.90;;;;;;5013595;28;20204;-74
2022/07/20 05:01:25;;;;;;;0.30;0.30;;;18.30;1.00;;;;;;5014152;28;20257;-74
2022/07/20 05:03:51;;;;;;;0.30;0.30;;;18.50;1.00;;;;;;5013756;28;20203;-74
2022/07/20 05:06:17;;;;;;;0.30;0.30;;;18.80;1.00;;;;;;5014102;28;20176;-73
2022/07/20 05:08:43;;;;;;;0.20;0.20;;;19.00;1.00;;;;;;5013620;28;20204;-74
2022/07/20 05:11:09;;;;;;;0.30;0.30;;;19.10;1.00;;;;;;5012588;28;20172;-74
2022/07/20 05:13:34;;;;;;;0.30;0.30;;;19.20;99.90;;;;;;5013741;28;20258;-75
2022/07/20 05:16:00;;;;;;;0.20;0.20;;;19.30;1.00;;;;;;5013824;28;20212;-76
2022/07/20 05:18:27;;;;;;;0.30;0.30;;;19.50;1.00;;;;;;5013599;28;20242;-73
2022/07/20 05:20:53;;;;;;;0.30;0.30;;;19.50;1.00;;;;;;5013452;28;20181;-75
2022/07/20 05:23:18;;;;;;;0.37;0.37;;;19.40;10.80;;;;;;5013844;28;20185;-73
2022/07/20 05:25:44;;;;;;;0.30;0.30;;;19.30;99.90;;;;;;5013681;28;20654;-74
2022/07/20 05:28:11;;;;;;;0.30;0.30;;;19.20;99.90;;;;;;5013592;28;20176;-73
2022/07/20 05:30:37;;;;;;;0.30;0.30;;;19.20;42.70;;;;;;5013035;28;20180;-73
2022/07/20 05:33:03;;;;;;;0.40;0.40;;;19.10;99.90;;;;;;5013310;28;20272;-74
2022/07/20 05:35:29;;;;;;;0.40;0.40;;;19.00;1.00;;;;;;5013560;28;20689;-73
2022/07/20 05:37:55;;;;;;;0.40;0.40;;;19.00;99.90;;;;;;5013289;28;20173;-73
2022/07/20 05:40:20;;;;;;;0.30;0.30;;;19.00;1.00;;;;;;5012662;28;20260;-73
2022/07/20 05:42:46;;;;;;;0.30;0.30;;;18.90;99.90;;;;;;5013061;28;20287;-72
2022/07/20 05:45:11;;;;;;;0.30;0.30;;;18.90;99.90;;;;;;5013191;28;20187;-73
2022/07/20 05:47:37;;;;;;;0.33;0.33;;;19.00;99.90;;;;;;5013029;28;20204;-73
2022/07/20 05:50:02;;;;;;;0.30;0.30;;;19.20;99.90;;;;;;5012791;28;20263;-73
2022/07/20 05:52:28;;;;;;;0.30;0.30;;;19.40;1.00;;;;;;5012964;28;20192;-72
2022/07/20 05:54:53;;;;;;;0.20;0.20;;;19.60;99.90;;;;;;5013160;28;20216;-72
2022/07/20 05:57:19;;;;;;;0.40;0.40;;;19.80;1.00;;;;;;5013126;28;20226;-74
2022/07/20 05:59:45;;;;;;;0.23;0.23;;;20.00;1.00;;;;;;5012553;28;20176;-72
2022/07/20 06:02:10;;;;;;;0.30;0.30;;;20.00;1.00;;;;;;5013783;28;20257;-73
2022/07/20 06:04:37;;;;;;;0.30;0.30;;;20.00;1.00;;;;;;5015230;28;20191;-73
2022/07/20 06:07:03;;;;;;;0.33;0.33;;;20.00;1.00;;;;;;5016879;28;20180;-76
2022/07/20 06:09:28;;;;;;;0.37;0.37;;;20.10;1.00;;;;;;5013803;28;20196;-75
2022/07/20 06:11:54;;;;;;;0.40;0.40;;;20.40;1.00;;;;;;5055184;23;20241;-82
2022/07/20 06:14:20;;;;;;;0.30;0.30;;;20.80;1.00;;;;;;5036930;28;20216;-83
2022/07/20 06:16:46;;;;;;;0.30;0.30;;;21.20;99.90;;;;;;5035331;28;20194;-82
2022/07/20 06:19:11;;;;;;;0.40;0.40;;;21.50;1.00;;;;;;5034347;28;20171;-83
2022/07/20 06:21:37;;;;;;;0.30;0.30;;;21.60;1.00;;;;;;5034227;28;20180;-82
2022/07/20 06:24:03;;;;;;;0.30;0.30;;;22.00;1.00;;;;;;5037015;28;20176;-82
2022/07/20 06:26:28;;;;;;;0.30;0.30;;;22.30;1.00;;;;;;5037207;28;20168;-81
2022/07/20 06:28:54;;;;;;;0.23;0.23;;;22.40;1.00;;;;;;5035206;28;20190;-81
2022/07/20 06:31:19;;;;;;;0.30;0.30;;;22.60;1.00;;;;;;5032914;28;20314;-81
2022/07/20 06:33:45;;;;;;;0.30;0.30;;;22.70;1.00;;;;;;5035366;28;20594;-81
2022/07/20 06:36:10;;;;;;;0.30;0.30;;;22.70;1.00;;;;;;5035254;28;20534;-82
2022/07/20 06:38:36;;;;;;;0.27;0.27;;;22.60;1.00;;;;;;5035851;28;20578;-81
2022/07/20 06:41:02;;;;;;;0.20;0.20;;;22.60;1.00;;;;;;5035454;28;20229;-82
2022/07/20 06:43:28;;;;;;;0.20;0.20;;;22.60;1.00;;;;;;5035355;28;20609;-82
2022/07/20 06:45:53;;;;;;;0.30;0.30;;;22.60;1.00;;;;;;5035403;28;20176;-81
2022/07/20 06:48:19;;;;;;;0.30;0.30;;;22.70;1.00;;;;;;5035835;28;20176;-81
2022/07/20 06:50:46;;;;;;;0.30;0.30;;;22.80;1.00;;;;;;5036217;28;20199;-81
2022/07/20 06:53:11;;;;;;;0.20;0.20;;;23.00;1.00;;;;;;5034769;28;20196;-81
2022/07/20 06:55:37;;;;;;;0.20;0.20;;;23.20;1.00;;;;;;5034241;28;20219;-80
2022/07/20 06:58:02;;;;;;;0.20;0.20;;;23.50;1.00;;;;;;5035087;28;20175;-79
2022/07/20 07:00:29;;;;;;;0.30;0.30;;;23.70;1.00;;;;;;5033328;28;20637;-80
2022/07/20 07:02:55;;;;;;;0.30;0.30;;;23.90;1.00;;;;;;5034487;28;20597;-82
2022/07/20 07:05:21;;;;;;;0.20;0.20;;;24.00;1.00;;;;;;5034916;28;20180;-82
2022/07/20 07:07:46;;;;;;;0.20;0.20;;;24.10;1.00;;;;;;5035917;28;20203;-79
2022/07/20 07:10:12;;;;;;;0.30;0.30;;;24.40;1.00;;;;;;5043800;28;20173;-80
2022/07/20 07:12:38;;;;;;;0.30;0.30;;;24.60;1.00;;;;;;5040761;28;20220;-84
2022/07/20 07:15:03;;;;;;;0.20;0.20;;;24.70;1.00;;;;;;5034771;28;20212;-79
2022/07/20 07:17:30;;;;;;;0.20;0.20;;;24.90;1.00;;;;;;5033511;28;20167;-79
2022/07/20 07:19:59;;;;;;;0.30;0.30;;;25.10;1.00;;;;;;5033921;28;20645;-80
2022/07/20 07:22:26;;;;;;;0.40;0.40;;;25.30;1.00;;;;;;5033631;28;20188;-80
2022/07/20 07:24:52;;;;;;;0.30;0.30;;;25.90;1.00;;;;;;5033420;28;20236;-78
2022/07/20 07:27:18;;;;;;;0.30;0.30;;;26.00;1.00;;;;;;5033389;28;20634;-78
2022/07/20 07:29:43;;;;;;;0.30;0.30;;;26.30;1.00;;;;;;5038478;28;20187;-78
2022/07/20 07:32:09;;;;;;;0.20;0.20;;;26.30;1.00;;;;;;5043975;28;20203;-78
2022/07/20 07:34:35;;;;;;;0.30;0.30;;;26.40;1.00;;;;;;5049295;28;20280;-78
2022/07/20 07:37:00;;;;;;;0.20;0.20;;;26.50;1.00;;;;;;5053551;28;20168;-79
2022/07/20 07:39:26;;;;;;;0.40;0.40;;;27.00;1.00;;;;;;5052972;28;20183;-79
2022/07/20 07:41:51;;;;;;;0.40;0.40;;;27.20;1.00;;;;;;5057227;28;20160;-78
2022/07/20 07:44:17;;;;;;;0.20;0.20;;;27.30;1.00;;;;;;5053663;28;20210;-78
2022/07/20 07:46:42;;;;;;;0.40;0.40;;;27.60;1.00;;;;;;5060589;28;20182;-82
2022/07/20 07:49:08;;;;;;;0.30;0.30;;;27.80;1.00;;;;;;5060209;28;20190;-84
2022/07/20 07:51:33;;;;;;;0.30;0.30;;;27.90;1.00;;;;;;5060013;28;20182;-84
2022/07/20 07:53:59;;;;;;;0.47;0.47;;;28.10;1.00;;;;;;5059231;28;20180;-83
2022/07/20 07:56:25;;;;;;;0.40;0.40;;;28.50;1.00;;;;;;5054085;28;20172;-83
2022/07/20 07:58:50;;;;;;;0.33;0.33;;;29.00;1.00;;;;;;5042290;28;20183;-82
2022/07/20 08:01:16;;;;;;;0.40;0.40;;;29.60;1.00;;;;;;5043831;28;20262;-82
2022/07/20 08:03:42;;;;;;;0.43;0.43;;;30.30;1.00;;;;;;5042128;28;20199;-80
2022/07/20 08:06:07;;;;;;;0.47;0.47;;;30.60;1.00;;;;;;5043181;28;20202;-81
2022/07/20 08:08:33;;;;;;;0.60;0.60;;;30.90;1.00;;;;;;5044444;28;20195;-81
2022/07/20 08:10:59;;;;;;;0.47;0.47;;;31.20;1.00;;;;;;5041801;28;20196;-81
2022/07/20 08:13:25;;;;;;;0.50;0.50;;;31.30;1.00;;;;;;5040875;28;20219;-80
2022/07/20 08:15:51;;;;;;;0.70;0.70;;;31.60;1.00;;;;;;5041335;28;20211;-79
2022/07/20 08:18:17;;;;;;;0.60;0.60;;;31.90;1.00;;;;;;5038631;28;20547;-78
2022/07/20 08:20:43;;;;;;;0.50;0.50;;;32.10;1.00;;;;;;5037756;28;20672;-80
2022/07/20 08:23:08;;;;;;;0.57;0.57;;;32.50;1.00;;;;;;5039024;28;20274;-80
2022/07/20 08:25:34;;;;;;;0.50;0.50;;;32.60;1.00;;;;;;5040046;28;20717;-78
2022/07/20 08:28:23;;;;;;;0.60;0.60;;;32.80;1.00;;;;;;5037976;28;20178;-78
2022/07/20 08:30:51;;;;;;;0.60;0.60;;;32.90;1.00;;;;;;5037082;28;20172;-77
2022/07/20 08:33:17;;;;;;;0.63;0.63;;;32.90;1.00;;;;;;5038166;28;20245;-80
2022/07/20 08:35:43;;;;;;;0.50;0.50;;;32.80;1.00;;;;;;5038381;28;20202;-80
2022/07/20 08:38:09;;;;;;;0.50;0.50;;;33.00;1.00;;;;;;5038046;28;20230;-77
2022/07/20 08:40:36;;;;;;;0.50;0.50;;;33.20;1.00;;;;;;5037428;28;20174;-79
2022/07/20 08:43:02;;;;;;;0.50;0.50;;;33.40;1.00;;;;;;5037880;28;20193;-78
2022/07/20 08:45:28;;;;;;;0.50;0.50;;;33.50;1.00;;;;;;5037706;28;20201;-77
2022/07/20 08:47:57;;;;;;;0.60;0.60;;;33.50;1.00;;;;;;5038251;28;20187;-79
2022/07/20 08:50:25;;;;;;;0.40;0.40;;;33.30;1.00;;;;;;5043430;28;20180;-78
2022/07/20 08:52:52;;;;;;;0.40;0.40;;;33.70;1.00;;;;;;5039896;28;20195;-79
2022/07/20 08:55:18;;;;;;;0.50;0.50;;;33.80;1.00;;;;;;5041258;28;20192;-79
2022/07/20 08:57:44;;;;;;;0.40;0.40;;;34.10;1.00;;;;;;5041054;28;20197;-79
2022/07/20 09:00:10;;;;;;;0.40;0.40;;;34.30;1.00;;;;;;5040965;28;20274;-78
2022/07/20 09:02:57;;;;;;;0.40;0.40;;;34.50;1.00;;;;;;5041688;28;20715;-80
2022/07/20 09:05:25;;;;;;;0.40;0.40;;;34.50;1.00;;;;;;5057844;28;20170;-79
2022/07/20 09:07:55;;;;;;;0.50;0.50;;;34.70;1.00;;;;;;5057954;28;20190;-79
2022/07/20 09:10:42;;;;;;;0.28;0.28;;;35.10;1.00;;;;;;5057841;28;20226;-80
2022/07/20 09:13:13;;;;;;;0.30;0.30;;;35.40;1.00;;;;;;5022117;28;1029120;-78
2022/07/20 09:15:52;;;;;;;0.20;0.20;;;35.50;1.00;;;;;;5054397;28;20217;-81
2022/07/20 09:18:26;;;;;;;0.30;0.30;;;35.20;1.00;;;;;;5044035;28;20179;-81
2022/07/20 09:20:58;;;;;;;0.40;0.40;;;35.20;1.00;;;;;;5043797;28;20171;-79
2022/07/20 09:23:42;;;;;;;0.30;0.30;;;35.30;1.00;;;;;;5044889;28;20271;-80
2022/07/20 09:26:11;;;;;;;0.30;0.30;;;35.20;1.00;;;;;;5043724;28;20182;-80
2022/07/20 09:28:44;;;;;;;0.40;0.40;;;35.40;1.00;;;;;;5043594;28;20182;-79
2022/07/20 09:31:11;;;;;;;0.32;0.32;;;35.60;1.00;;;;;;5041551;28;20178;-79
2022/07/20 09:33:37;;;;;;;0.32;0.32;;;35.90;1.00;;;;;;5042440;28;20259;-80
2022/07/20 09:36:05;;;;;;;0.40;0.40;;;35.70;1.00;;;;;;5040470;28;20243;-82
2022/07/20 09:38:36;;;;;;;0.40;0.40;;;35.60;1.00;;;;;;5040867;28;20203;-80
2022/07/20 09:41:04;;;;;;;0.35;0.35;;;36.00;1.00;;;;;;5040420;28;20590;-80
2022/07/20 09:43:35;;;;;;;0.30;0.30;;;36.10;1.00;;;;;;5042754;28;20192;-79
2022/07/20 09:46:22;;;;;;;0.32;0.32;;;35.80;1.00;;;;;;5042572;28;20176;-80
2022/07/20 09:48:51;;;;;;;0.30;0.30;;;35.50;1.00;;;;;;5043657;28;20175;-79
2022/07/20 09:51:19;;;;;;;0.30;0.30;;;35.40;1.00;;;;;;5044067;28;20187;-81
2022/07/20 09:53:45;;;;;;;0.30;0.30;;;35.60;1.00;;;;;;5044200;28;20209;-80
2022/07/20 09:56:13;;;;;;;0.30;0.30;;;36.00;1.00;;;;;;5043624;28;20228;-80
2022/07/20 09:58:38;;;;;;;0.20;0.20;;;36.40;1.00;;;;;;5047592;28;20176;-79
2022/07/20 10:01:04;;;;;;;0.20;0.20;;;36.60;1.00;;;;;;5047585;28;20246;-80
2022/07/20 10:03:30;;;;;;;0.30;0.30;;;36.70;1.00;;;;;;5048165;28;20603;-79
2022/07/20 10:05:56;;;;;;;0.30;0.30;;;36.80;1.00;;;;;;5044392;28;20176;-79
2022/07/20 10:08:23;;;;;;;0.20;0.20;;;37.10;1.00;;;;;;5039997;28;20694;-80
2022/07/20 10:10:49;;;;;;;0.10;0.10;;;37.20;1.00;;;;;;5038567;28;20201;-79
2022/07/20 10:13:15;;;;;;;0.30;0.30;;;37.10;1.00;;;;;;5036566;28;20311;-79
2022/07/20 10:15:48;;;;;;;0.20;0.20;;;36.70;1.00;;;;;;5038303;28;20214;-80
2022/07/20 10:18:14;;;;;;;0.10;0.10;;;36.90;1.00;;;;;;5037895;28;20245;-80
2022/07/20 10:20:39;;;;;;;0.20;0.20;;;37.30;1.00;;;;;;5037419;28;20590;-80
2022/07/20 10:23:14;;;;;;;0.10;0.10;;;37.50;1.00;;;;;;5038376;28;20680;-82
2022/07/20 10:25:40;;;;;;;0.20;0.10;;;37.70;1.00;;;;;;5038234;28;20644;-80
2022/07/20 10:28:35;;;;;;;0.10;0.10;;;37.80;1.00;;;;;;5039525;28;20179;-79
2022/07/20 10:31:08;;;;;;;0.10;0.10;;;37.60;1.00;;;;;;5040224;28;20172;-79
2022/07/20 10:33:37;;;;;;;0.10;0.10;;;37.30;1.00;;;;;;5039719;28;20672;-79
2022/07/20 10:39:40;;;;;;;0.13;0.13;;;37.30;1.00;;;;;;5039068;28;20182;-79
2022/07/20 10:42:30;;;;;;;0.10;0.10;;;37.60;1.00;;;;;;5040341;28;20191;-81
2022/07/20 10:45:27;;;;;;;0.00;0.00;;;37.80;1.00;;;;;;5041538;28;20566;-81
2022/07/20 10:48:14;;;;;;;0.10;0.10;;;37.90;1.00;;;;;;5040711;28;20240;-79
2022/07/20 10:50:54;;;;;;;0.20;0.20;;;38.00;1.00;;;;;;5041361;28;20179;-79
2022/07/20 10:53:23;;;;;;;0.10;0.10;;;38.50;1.00;;;;;;5042382;28;20200;-82
2022/07/20 10:55:58;;;;;;;0.20;0.20;;;38.70;1.00;;;;;;5040079;28;20199;-80
2022/07/20 10:58:31;;;;;;;0.10;0.10;;;38.90;1.00;;;;;;5037351;28;20186;-80
2022/07/20 11:01:03;;;;;;;0.15;0.15;;;39.10;1.00;;;;;;5038789;28;20176;-80
2022/07/20 11:03:34;;;;;;;0.10;0.10;;;39.10;1.00;;;;;;5042830;28;20201;-80
2022/07/20 11:06:14;;;;;;;0.10;0.10;;;39.10;1.00;;;;;;5042199;28;20178;-79
2022/07/20 11:08:44;;;;;;;0.08;0.08;;;39.20;1.00;;;;;;5036888;28;20189;-79
2022/07/20 11:11:22;;;;;;;0.10;0.10;;;38.90;1.00;;;;;;5042390;28;20184;-78
2022/07/20 11:13:49;;;;;;;0.20;0.20;;;38.90;1.00;;;;;;5043305;28;20231;-79
2022/07/20 11:16:21;;;;;;;0.05;0.05;;;38.90;1.00;;;;;;5040834;28;20272;-78
2022/07/20 11:18:48;;;;;;;0.20;0.20;;;38.80;1.00;;;;;;5033367;28;20629;-79
2022/07/20 11:21:13;;;;;;;0.10;0.10;;;39.00;1.00;;;;;;5031084;28;20190;-78
2022/07/20 11:23:44;;;;;;;0.10;0.10;;;39.20;1.00;;;;;;5032503;28;20267;-78
2022/07/20 11:26:12;;;;;;;0.10;0.10;;;39.30;1.00;;;;;;5033930;28;20177;-78
2022/07/20 11:28:46;;;;;;;0.10;0.10;;;39.30;1.00;;;;;;5035513;28;20694;-79
2022/07/20 11:31:12;;;;;;;0.10;0.10;;;39.60;1.00;;;;;;5037629;28;20197;-81
2022/07/20 11:33:39;;;;;;;0.20;0.20;;;39.80;1.00;;;;;;5039497;28;20197;-79
2022/07/20 11:36:07;;;;;;;0.10;0.10;;;39.70;1.00;;;;;;5040320;28;20213;-79
2022/07/20 11:38:35;;;;;;;0.10;0.10;;;39.70;1.00;;;;;;5039863;28;20177;-79
2022/07/20 11:41:03;;;;;;;0.20;0.20;;;39.70;1.00;;;;;;5039587;28;20168;-80
2022/07/20 11:43:29;;;;;;;0.13;0.13;;;39.30;1.00;;;;;;5036590;28;20192;-79
2022/07/20 11:46:13;;;;;;;0.13;0.13;;;39.00;1.00;;;;;;5039262;28;20191;-79
2022/07/20 11:48:40;;;;;;;0.13;0.13;;;39.20;1.00;;;;;;5040015;28;20175;-79
2022/07/20 11:51:06;;;;;;;0.10;0.10;;;39.50;1.00;;;;;;5039686;28;20168;-80
2022/07/20 11:53:34;;;;;;;0.03;0.03;;;39.40;1.00;;;;;;5036052;28;20199;-79
2022/07/20 11:56:02;;;;;;;0.10;0.10;;;39.40;1.00;;;;;;5037981;28;20209;-78
2022/07/20 11:58:31;;;;;;;0.08;0.08;;;39.70;1.00;;;;;;5031961;28;20174;-79
2022/07/20 12:00:57;;;;;;;0.10;0.10;;;39.80;1.00;;;;;;5036245;28;20178;-78
2022/07/20 12:03:28;;;;;;;0.10;0.10;;;39.80;1.00;;;;;;5036837;28;20691;-78
2022/07/20 12:05:54;;;;;;;0.10;0.10;;;39.60;1.00;;;;;;5034418;28;20179;-78
2022/07/20 12:08:20;;;;;;;0.10;0.10;;;39.70;1.00;;;;;;5033163;28;20183;-77
2022/07/20 12:10:46;;;;;;;0.17;0.17;;;39.70;1.00;;;;;;5032264;28;20707;-77
2022/07/20 12:13:13;;;;;;;0.10;0.10;;;39.80;1.00;;;;;;5032388;28;20274;-79
2022/07/20 12:15:50;;;;;;;0.10;0.10;;;39.80;1.00;;;;;;5033280;28;20584;-78
2022/07/20 12:18:41;;;;;;;0.13;0.13;;;39.90;1.00;;;;;;5032457;28;20186;-78
2022/07/20 12:21:10;;;;;;;0.13;0.13;;;40.00;1.00;;;;;;5033154;28;20174;-78
2022/07/20 12:23:36;;;;;;;0.22;0.22;;;40.20;1.00;;;;;;5036222;28;20288;-77
2022/07/20 12:26:19;;;;;;;0.20;0.20;;;40.20;1.00;;;;;;5038031;28;20182;-78
2022/07/20 12:28:45;;;;;;;0.05;0.05;;;40.10;1.00;;;;;;5035931;28;20645;-78
2022/07/20 12:31:13;;;;;;;0.08;0.08;;;40.00;1.00;;;;;;5036695;28;20186;-78
2022/07/20 12:33:58;;;;;;;0.10;0.10;;;40.10;1.00;;;;;;5035412;28;20186;-80
2022/07/20 12:36:32;;;;;;;0.10;0.10;;;40.10;1.00;;;;;;5038717;28;20186;-78
2022/07/20 12:38:57;;;;;;;0.20;0.20;;;39.90;1.00;;;;;;5040551;28;20179;-79
2022/07/20 12:41:23;;;;;;;0.10;0.10;;;39.70;1.00;;;;;;5039722;28;20564;-80
2022/07/20 12:43:48;;;;;;;0.10;0.10;;;39.70;1.00;;;;;;5038519;28;20264;-79
2022/07/20 12:46:14;;;;;;;0.10;0.10;;;40.00;1.00;;;;;;5039159;28;20181;-79
2022/07/20 12:48:46;;;;;;;0.10;0.10;;;39.80;1.00;;;;;;5039895;28;20191;-80
2022/07/20 12:51:13;;;;;;;0.10;0.10;;;39.80;1.00;;;;;;5039280;28;20210;-80
2022/07/20 12:53:40;;;;;;;0.10;0.10;;;39.80;1.00;;;;;;5039722;28;20203;-80
2022/07/20 12:56:07;;;;;;;0.10;0.10;;;39.90;1.00;;;;;;5039560;28;20301;-81
2022/07/20 12:58:32;;;;;;;0.10;0.10;;;39.90;1.00;;;;;;5042382;28;20186;-79
2022/07/20 13:00:58;;;;;;;0.10;0.10;;;40.00;1.00;;;;;;5039721;28;20179;-78
2022/07/20 13:03:24;;;;;;;0.08;0.08;;;40.00;1.00;;;;;;5040781;28;20625;-80